Time;durP1;ratioP1;P1;durP2;ratioP2;P2;SDS_P1;SDS_P2;PMS_P1;PMS_P2;Temp;Humidity;BMP_temperature;BMP_pressure;BME280_temperature;BME280_humidity;BME280_pressure;Samples;Min_cycle;Max_cycle;Signal;HPM_P1;HPM_P2
2021/01/01 00:02:20;;;;;;;10.57;4.40;;;4.20;82.80;;;;;;4971590;28;20117;-88
2021/01/01 00:04:46;;;;;;;10.15;4.15;;;4.30;82.90;;;;;;4973862;28;20027;-88
2021/01/01 00:07:12;;;;;;;11.38;5.13;;;4.20;82.70;;;;;;4956600;28;20027;-88
2021/01/01 00:09:37;;;;;;;9.63;4.45;;;4.20;82.70;;;;;;4959184;28;20034;-88
2021/01/01 00:12:03;;;;;;;10.15;4.25;;;4.20;82.50;;;;;;4997842;28;20387;-87
2021/01/01 00:14:29;;;;;;;10.55;4.70;;;4.20;82.50;;;;;;4980340;28;20030;-87
2021/01/01 00:16:55;;;;;;;10.23;4.20;;;4.30;82.90;;;;;;4962463;28;20037;-88
2021/01/01 00:19:20;;;;;;;9.88;3.97;;;4.30;82.70;;;;;;4977408;28;20050;-85
2021/01/01 00:21:46;;;;;;;10.13;4.07;;;4.20;82.50;;;;;;4975198;28;20074;-85
2021/01/01 00:24:11;;;;;;;9.68;3.83;;;4.20;82.40;;;;;;4979076;28;20476;-85
2021/01/01 00:26:37;;;;;;;8.82;3.50;;;4.20;82.50;;;;;;4979527;28;20031;-84
2021/01/01 00:29:03;;;;;;;7.97;3.50;;;4.20;82.80;;;;;;4977424;28;20035;-88
2021/01/01 00:31:29;;;;;;;10.02;4.47;;;4.20;82.70;;;;;;4997990;28;20027;-88
2021/01/01 00:33:54;;;;;;;10.38;4.57;;;4.20;82.50;;;;;;4975863;28;20028;-88
2021/01/01 00:36:21;;;;;;;8.38;3.75;;;4.20;82.50;;;;;;4991678;28;20035;-85
2021/01/01 00:38:52;;;;;;;8.57;3.80;;;4.20;82.50;;;;;;4978138;28;20093;-87
2021/01/01 00:41:26;;;;;;;7.22;3.42;;;4.20;82.40;;;;;;4975706;28;20105;-88
2021/01/01 00:43:55;;;;;;;8.57;3.75;;;4.10;82.20;;;;;;4976547;28;20490;-87
2021/01/01 00:46:22;;;;;;;8.35;3.53;;;4.10;82.10;;;;;;4992104;28;20609;-88
2021/01/01 00:48:49;;;;;;;10.63;4.57;;;4.00;82.00;;;;;;4995128;28;20487;-87
2021/01/01 00:51:14;;;;;;;10.82;4.93;;;3.90;82.00;;;;;;4993084;28;20051;-85
2021/01/01 00:53:40;;;;;;;10.25;4.22;;;3.90;82.20;;;;;;4958909;28;20431;-85
2021/01/01 00:56:06;;;;;;;10.57;4.30;;;3.90;82.30;;;;;;4997124;28;20031;-86
2021/01/01 00:58:32;;;;;;;10.57;4.90;;;3.90;82.60;;;;;;4974808;28;20470;-86
2021/01/01 01:00:57;;;;;;;11.95;4.78;;;3.90;82.70;;;;;;4995842;28;20031;-87
2021/01/01 01:03:23;;;;;;;10.88;4.72;;;4.00;82.60;;;;;;4993316;28;20030;-87
2021/01/01 01:05:49;;;;;;;12.07;5.25;;;3.90;82.30;;;;;;4974673;28;20478;-87
2021/01/01 01:08:14;;;;;;;9.00;4.50;;;3.90;82.40;;;;;;4993691;28;20054;-88
2021/01/01 01:10:42;;;;;;;9.55;4.65;;;3.90;82.60;;;;;;4991043;28;20110;-87
2021/01/01 01:13:08;;;;;;;10.45;4.93;;;3.90;82.60;;;;;;4975938;28;20046;-87
2021/01/01 01:15:33;;;;;;;12.20;4.93;;;3.90;82.40;;;;;;4973990;28;20105;-90
2021/01/01 01:17:59;;;;;;;12.60;5.03;;;3.90;82.40;;;;;;4979528;28;20035;-89
2021/01/01 01:20:24;;;;;;;11.55;4.80;;;3.90;82.40;;;;;;4975060;28;20039;-89
2021/01/01 01:22:50;;;;;;;13.40;5.40;;;3.80;82.40;;;;;;4995254;28;20043;-89
2021/01/01 01:25:16;;;;;;;11.02;4.68;;;3.90;83.10;;;;;;4976453;28;20475;-89
2021/01/01 01:27:41;;;;;;;12.20;5.55;;;3.80;82.50;;;;;;4944054;28;20038;-89
2021/01/01 01:30:07;;;;;;;10.93;4.85;;;3.80;82.70;;;;;;4948574;28;20113;-89
2021/01/01 01:32:33;;;;;;;11.20;5.25;;;3.90;82.80;;;;;;4958750;28;20029;-89
2021/01/01 01:34:59;;;;;;;13.43;5.13;;;3.90;82.70;;;;;;4943536;28;20039;-89
2021/01/01 01:37:24;;;;;;;11.68;4.88;;;3.90;82.90;;;;;;4958501;28;20378;-89
2021/01/01 01:39:50;;;;;;;12.52;5.55;;;3.90;82.90;;;;;;4943598;28;20066;-89
2021/01/01 01:42:15;;;;;;;12.98;5.50;;;4.00;83.00;;;;;;4974072;28;20035;-89
2021/01/01 01:44:41;;;;;;;13.02;6.05;;;4.00;82.90;;;;;;4977770;28;20023;-89
2021/01/01 01:47:09;;;;;;;13.35;6.22;;;4.00;83.00;;;;;;4981658;28;20050;-89
2021/01/01 01:49:35;;;;;;;12.57;5.38;;;4.10;83.00;;;;;;4987826;28;20019;-86
2021/01/01 01:52:00;;;;;;;12.48;5.18;;;4.10;82.90;;;;;;4981896;28;20023;-89
2021/01/01 01:54:28;;;;;;;12.65;5.40;;;4.00;82.70;;;;;;4958505;28;20018;-89
2021/01/01 01:56:54;;;;;;;12.35;5.35;;;4.10;83.00;;;;;;4994862;28;20042;-88
2021/01/01 01:59:21;;;;;;;11.48;5.15;;;4.00;82.90;;;;;;4973350;28;20635;-89
2021/01/01 02:01:47;;;;;;;12.13;5.15;;;4.00;82.60;;;;;;4972534;28;20373;-88
2021/01/01 02:04:12;;;;;;;9.55;4.70;;;4.00;82.70;;;;;;4975377;28;20030;-86
2021/01/01 02:06:41;;;;;;;11.25;4.65;;;4.00;82.40;;;;;;4958054;28;20487;-90
2021/01/01 02:09:07;;;;;;;11.65;5.00;;;4.00;83.00;;;;;;4974438;28;20069;-89
2021/01/01 02:11:34;;;;;;;9.90;4.68;;;4.00;83.10;;;;;;4973574;28;20253;-89
2021/01/01 02:14:01;;;;;;;10.30;4.80;;;4.00;82.80;;;;;;4977843;28;20484;-88
2021/01/01 02:16:27;;;;;;;10.45;5.47;;;4.10;82.60;;;;;;4975466;28;20027;-88
2021/01/01 02:18:53;;;;;;;10.90;5.32;;;4.00;82.40;;;;;;4977031;28;20073;-88
2021/01/01 02:21:19;;;;;;;11.60;4.82;;;3.90;82.60;;;;;;4973234;28;20030;-88
2021/01/01 02:23:45;;;;;;;9.98;5.25;;;3.90;82.60;;;;;;4973007;28;20501;-88
2021/01/01 02:26:11;;;;;;;12.13;5.15;;;3.90;82.90;;;;;;4974977;28;20127;-86
2021/01/01 02:28:37;;;;;;;11.95;5.63;;;3.90;82.90;;;;;;4974549;28;20053;-86
2021/01/01 02:31:04;;;;;;;12.75;5.93;;;3.90;82.80;;;;;;4973193;28;20031;-86
2021/01/01 02:33:30;;;;;;;13.00;6.13;;;3.90;82.60;;;;;;4974527;28;20023;-87
2021/01/01 02:35:56;;;;;;;12.82;5.40;;;3.90;82.90;;;;;;4974491;28;20023;-86
2021/01/01 02:38:21;;;;;;;11.20;5.10;;;3.90;82.80;;;;;;4972814;28;20027;-86
2021/01/01 02:40:47;;;;;;;9.27;4.65;;;3.90;83.30;;;;;;4957997;28;20038;-87
2021/01/01 02:43:12;;;;;;;11.60;5.32;;;3.90;82.80;;;;;;4973959;28;20494;-89
2021/01/01 02:45:38;;;;;;;11.30;4.82;;;3.90;82.80;;;;;;4958748;28;20033;-89
2021/01/01 02:48:12;;;;;;;12.07;5.25;;;3.90;82.90;;;;;;4973442;28;20537;-89
2021/01/01 02:50:37;;;;;;;11.95;4.88;;;3.90;82.90;;;;;;4988295;28;20118;-89
2021/01/01 02:53:04;;;;;;;13.95;5.55;;;3.90;82.80;;;;;;4973391;28;20142;-88
2021/01/01 02:55:31;;;;;;;11.48;5.45;;;3.90;82.80;;;;;;4972256;28;20125;-90
2021/01/01 02:57:58;;;;;;;13.75;6.13;;;3.90;83.10;;;;;;4973176;28;20022;-89
2021/01/01 03:00:24;;;;;;;11.50;5.28;;;3.90;82.90;;;;;;4978695;28;20038;-89
2021/01/01 03:02:49;;;;;;;11.43;5.38;;;3.90;83.00;;;;;;4973229;28;20106;-89
2021/01/01 03:05:15;;;;;;;12.02;5.20;;;3.90;82.90;;;;;;4972767;28;20031;-89
2021/01/01 03:07:40;;;;;;;12.52;5.60;;;3.90;82.70;;;;;;4972770;28;20088;-89
2021/01/01 03:10:07;;;;;;;11.75;5.63;;;3.90;83.20;;;;;;4941898;28;20061;-87
2021/01/01 03:12:32;;;;;;;13.55;5.72;;;3.90;83.20;;;;;;4988983;28;20027;-86
2021/01/01 03:14:58;;;;;;;13.13;5.65;;;4.00;83.30;;;;;;4972344;28;20471;-86
2021/01/01 03:17:23;;;;;;;14.02;6.35;;;4.00;83.10;;;;;;4994444;28;20037;-86
2021/01/01 03:19:49;;;;;;;11.05;5.22;;;4.00;83.00;;;;;;4972176;28;20129;-86
2021/01/01 03:22:15;;;;;;;12.38;5.32;;;3.90;82.60;;;;;;4977114;28;20051;-86
2021/01/01 03:24:40;;;;;;;10.73;5.22;;;3.90;82.70;;;;;;4991287;28;20033;-87
2021/01/01 03:27:06;;;;;;;12.52;6.03;;;3.90;82.70;;;;;;4976249;28;20033;-87
2021/01/01 03:29:31;;;;;;;12.75;6.28;;;3.80;82.70;;;;;;4971539;28;20378;-87
2021/01/01 03:31:57;;;;;;;12.32;5.57;;;3.80;82.80;;;;;;4973509;28;20034;-87
2021/01/01 03:34:22;;;;;;;14.35;6.18;;;3.80;82.90;;;;;;4972196;28;20047;-87
2021/01/01 03:36:50;;;;;;;11.85;5.25;;;3.80;82.90;;;;;;4974117;28;20026;-87
2021/01/01 03:39:16;;;;;;;12.82;5.57;;;3.80;83.50;;;;;;4987684;28;20437;-87
2021/01/01 03:41:41;;;;;;;13.98;5.57;;;3.80;83.00;;;;;;4991125;28;20070;-87
2021/01/01 03:44:07;;;;;;;12.40;5.60;;;3.80;83.00;;;;;;4971735;28;20027;-87
2021/01/01 03:46:33;;;;;;;12.90;5.63;;;3.90;83.00;;;;;;4990575;28;20369;-88
2021/01/01 03:48:58;;;;;;;12.23;5.03;;;3.80;83.00;;;;;;4975748;28;20026;-87
2021/01/01 03:51:24;;;;;;;12.18;5.35;;;3.80;82.90;;;;;;4990078;28;20054;-86
2021/01/01 03:53:49;;;;;;;10.35;4.90;;;3.80;82.90;;;;;;4971701;28;20050;-87
2021/01/01 03:56:15;;;;;;;14.55;4.95;;;3.80;82.70;;;;;;4982155;28;20034;-87
2021/01/01 03:58:40;;;;;;;12.07;5.93;;;3.80;82.80;;;;;;4959966;28;20046;-87
2021/01/01 04:01:06;;;;;;;13.85;5.80;;;3.80;82.90;;;;;;4975669;28;20129;-87
2021/01/01 04:03:32;;;;;;;12.40;5.80;;;3.80;83.00;;;;;;4961090;28;20034;-87
2021/01/01 04:05:58;;;;;;;11.38;5.18;;;3.80;83.20;;;;;;4974395;28;20114;-87
2021/01/01 04:08:23;;;;;;;11.25;5.70;;;3.80;83.00;;;;;;4977616;28;20514;-87
2021/01/01 04:10:49;;;;;;;11.68;5.63;;;3.80;83.00;;;;;;4959696;28;20031;-86
2021/01/01 04:13:15;;;;;;;12.15;5.55;;;3.80;83.10;;;;;;4977052;28;20023;-86
2021/01/01 04:15:40;;;;;;;13.82;5.75;;;3.80;83.10;;;;;;4991442;28;20027;-87
2021/01/01 04:18:07;;;;;;;12.40;5.72;;;3.80;82.90;;;;;;4991555;28;20027;-86
2021/01/01 04:20:33;;;;;;;11.88;5.20;;;3.80;82.70;;;;;;4959459;28;20035;-86
2021/01/01 04:22:58;;;;;;;12.10;5.35;;;3.70;82.80;;;;;;4979608;28;20050;-88
2021/01/01 04:25:24;;;;;;;12.77;4.88;;;3.70;82.90;;;;;;4994520;28;20126;-89
2021/01/01 04:27:50;;;;;;;11.60;4.80;;;3.70;82.90;;;;;;4979130;28;20369;-89
2021/01/01 04:30:16;;;;;;;10.90;4.85;;;3.70;83.00;;;;;;4991239;28;20360;-88
2021/01/01 04:32:41;;;;;;;11.95;5.07;;;3.70;82.90;;;;;;4993734;28;20035;-89
2021/01/01 04:35:08;;;;;;;12.07;5.18;;;3.70;83.00;;;;;;4976997;28;20035;-86
2021/01/01 04:37:33;;;;;;;11.73;5.35;;;3.80;83.30;;;;;;4976227;28;20106;-86
2021/01/01 04:39:59;;;;;;;11.52;4.68;;;3.80;83.30;;;;;;4979443;28;20484;-86
2021/01/01 04:42:25;;;;;;;13.05;5.00;;;3.80;83.10;;;;;;4974427;28;20031;-86
2021/01/01 04:44:51;;;;;;;11.80;5.15;;;3.80;83.20;;;;;;4994736;28;20423;-86
2021/01/01 04:47:18;;;;;;;13.32;6.00;;;3.80;83.20;;;;;;4993561;28;20027;-88
2021/01/01 04:49:44;;;;;;;12.95;5.53;;;3.80;83.20;;;;;;4996032;28;20034;-87
2021/01/01 04:52:10;;;;;;;13.85;6.10;;;3.90;83.40;;;;;;4991353;28;20042;-88
2021/01/01 04:54:40;;;;;;;10.80;5.45;;;3.90;83.50;;;;;;4972246;28;20379;-88
2021/01/01 04:57:07;;;;;;;14.32;5.50;;;3.90;83.30;;;;;;4975038;28;20041;-88
2021/01/01 04:59:32;;;;;;;12.45;5.85;;;3.90;83.50;;;;;;4976992;28;20037;-87
2021/01/01 05:01:58;;;;;;;11.52;5.82;;;3.90;83.40;;;;;;4974610;28;20023;-87
2021/01/01 05:04:23;;;;;;;12.75;4.90;;;4.00;83.40;;;;;;4992497;28;20386;-87
2021/01/01 05:06:49;;;;;;;12.00;5.60;;;4.00;84.00;;;;;;4958544;28;20095;-88
2021/01/01 05:09:15;;;;;;;11.18;5.03;;;4.00;83.20;;;;;;4975859;28;20042;-87
2021/01/01 05:11:41;;;;;;;11.45;5.40;;;3.90;82.90;;;;;;4979944;28;20177;-87
2021/01/01 05:14:07;;;;;;;10.38;4.70;;;3.90;83.10;;;;;;4975464;28;20046;-87
2021/01/01 05:16:34;;;;;;;12.38;5.05;;;3.90;83.30;;;;;;4974947;28;20026;-87
2021/01/01 05:19:33;;;;;;;12.73;5.35;;;3.90;83.30;;;;;;4974066;28;20033;-86
2021/01/01 05:22:07;;;;;;;14.07;6.25;;;3.90;83.00;;;;;;4974570;28;20039;-87
2021/01/01 05:24:43;;;;;;;12.68;5.25;;;3.80;82.70;;;;;;4974643;28;20046;-87
2021/01/01 05:27:13;;;;;;;11.65;4.85;;;3.80;83.00;;;;;;4974475;28;20027;-87
2021/01/01 05:29:52;;;;;;;11.30;5.53;;;3.80;82.90;;;;;;4971868;28;20021;-88
2021/01/01 05:32:28;;;;;;;12.13;5.55;;;3.70;83.40;;;;;;4974510;28;20023;-88
2021/01/01 05:34:56;;;;;;;14.85;5.90;;;3.70;82.90;;;;;;4975653;28;20069;-88
2021/01/01 05:37:30;;;;;;;11.43;4.53;;;3.70;83.20;;;;;;4974511;28;20054;-88
2021/01/01 05:40:07;;;;;;;11.68;5.95;;;3.80;83.40;;;;;;4973883;28;20483;-88
2021/01/01 05:42:34;;;;;;;11.57;5.65;;;3.80;83.30;;;;;;4974125;28;20026;-88
2021/01/01 05:45:20;;;;;;;11.75;5.65;;;3.80;83.20;;;;;;4975676;28;20452;-88
2021/01/01 05:48:05;;;;;;;12.57;5.75;;;3.80;83.30;;;;;;4974800;28;20034;-88
2021/01/01 05:50:35;;;;;;;11.07;5.50;;;3.80;83.40;;;;;;4974025;28;20030;-88
2021/01/01 05:53:28;;;;;;;12.38;5.22;;;3.80;83.30;;;;;;4973023;28;20019;-88
2021/01/01 05:56:06;;;;;;;14.52;5.93;;;3.80;83.40;;;;;;4957781;28;20085;-88
2021/01/01 05:58:32;;;;;;;13.57;6.10;;;3.80;83.20;;;;;;4973831;28;20472;-88
2021/01/01 06:00:58;;;;;;;11.52;5.80;;;3.80;83.30;;;;;;4992833;28;20041;-88
2021/01/01 06:03:28;;;;;;;11.68;5.28;;;3.80;83.30;;;;;;4993572;28;20035;-88
2021/01/01 06:05:56;;;;;;;13.80;6.03;;;3.70;83.00;;;;;;4991844;28;20034;-88
2021/01/01 06:08:27;;;;;;;13.65;6.25;;;3.70;82.90;;;;;;4957705;28;20027;-87
2021/01/01 06:10:58;;;;;;;13.98;6.18;;;3.70;82.90;;;;;;4973590;28;20025;-87
2021/01/01 06:13:24;;;;;;;12.52;5.70;;;3.60;82.80;;;;;;4973648;28;20027;-88
2021/01/01 06:15:57;;;;;;;11.82;5.28;;;3.60;83.20;;;;;;4973468;28;20041;-82
2021/01/01 06:18:34;;;;;;;13.20;6.00;;;3.70;83.50;;;;;;4972294;28;20062;-81
2021/01/01 06:21:07;;;;;;;14.52;5.38;;;3.70;83.70;;;;;;4991739;28;20054;-82
2021/01/01 06:23:33;;;;;;;13.77;5.50;;;3.80;83.70;;;;;;4974432;28;20391;-82
2021/01/01 06:26:04;;;;;;;14.32;6.40;;;3.80;83.50;;;;;;4989664;28;20018;-81
2021/01/01 06:28:31;;;;;;;14.43;6.28;;;3.80;83.40;;;;;;4974397;28;20895;-82
2021/01/01 06:30:58;;;;;;;14.65;7.03;;;3.80;83.30;;;;;;4974648;28;20387;-82
2021/01/01 06:33:24;;;;;;;13.63;5.93;;;3.80;83.30;;;;;;4973348;28;20030;-82
2021/01/01 06:35:51;;;;;;;13.60;5.75;;;3.80;83.20;;;;;;4970958;28;20031;-82
2021/01/01 06:38:51;;;;;;;15.07;6.20;;;3.70;83.20;;;;;;4977158;28;20418;-82
2021/01/01 06:41:42;;;;;;;13.70;6.47;;;3.70;83.00;;;;;;4952619;28;20050;-81
2021/01/01 06:44:08;;;;;;;12.35;5.60;;;3.70;83.00;;;;;;4974064;28;20031;-82
2021/01/01 06:46:36;;;;;;;13.55;5.93;;;3.70;83.20;;;;;;4973273;28;20376;-82
2021/01/01 06:49:07;;;;;;;13.27;6.00;;;3.60;83.20;;;;;;4988874;28;20031;-82
2021/01/01 06:51:33;;;;;;;14.15;5.80;;;3.70;83.70;;;;;;4974199;28;20026;-81
2021/01/01 06:54:13;;;;;;;13.00;6.05;;;3.60;83.10;;;;;;4973022;28;20033;-81
2021/01/01 06:56:43;;;;;;;13.10;5.78;;;3.60;83.20;;;;;;4990556;28;20023;-81
2021/01/01 06:59:14;;;;;;;14.18;5.95;;;3.60;83.10;;;;;;4974000;28;20379;-80
2021/01/01 07:01:44;;;;;;;14.00;5.90;;;3.60;83.20;;;;;;4972665;28;20060;-81
2021/01/01 07:04:10;;;;;;;13.90;5.93;;;3.60;83.20;;;;;;4988784;28;20027;-81
2021/01/01 07:06:37;;;;;;;15.05;5.90;;;3.50;82.90;;;;;;4993036;28;20051;-81
2021/01/01 07:09:05;;;;;;;14.40;6.00;;;3.50;83.20;;;;;;4973114;28;20101;-83
2021/01/01 07:11:31;;;;;;;12.48;5.60;;;3.50;83.20;;;;;;4973091;28;20029;-82
2021/01/01 07:14:05;;;;;;;13.23;5.60;;;3.50;83.00;;;;;;4988675;28;20030;-82
2021/01/01 07:16:42;;;;;;;13.75;6.10;;;3.50;83.20;;;;;;4990206;28;20110;-82
2021/01/01 07:19:09;;;;;;;15.25;6.35;;;3.50;83.10;;;;;;4972486;28;20035;-82
2021/01/01 07:21:35;;;;;;;16.15;6.50;;;3.40;83.00;;;;;;4972141;28;20054;-82
2021/01/01 07:24:01;;;;;;;12.70;5.93;;;3.50;83.40;;;;;;4990642;28;20030;-82
2021/01/01 07:26:27;;;;;;;15.43;7.15;;;3.50;83.20;;;;;;4972429;28;20027;-82
2021/01/01 07:28:55;;;;;;;16.33;6.97;;;3.50;83.30;;;;;;4972152;28;20026;-82
2021/01/01 07:31:21;;;;;;;16.63;6.88;;;3.50;83.40;;;;;;4992428;28;20029;-82
2021/01/01 07:33:48;;;;;;;14.48;6.25;;;3.50;83.20;;;;;;4972232;28;20113;-81
2021/01/01 07:36:15;;;;;;;16.25;7.53;;;3.50;83.50;;;;;;4973662;28;20766;-80
2021/01/01 07:38:42;;;;;;;14.90;6.60;;;3.50;83.50;;;;;;4974414;28;20027;-82
2021/01/01 07:41:09;;;;;;;15.68;7.47;;;3.60;83.70;;;;;;4989695;28;20082;-82
2021/01/01 07:43:35;;;;;;;16.33;7.55;;;3.60;83.60;;;;;;4956493;28;20498;-83
2021/01/01 07:46:06;;;;;;;14.77;6.68;;;3.70;83.70;;;;;;4972449;28;20027;-83
2021/01/01 07:48:32;;;;;;;17.02;6.32;;;3.70;83.60;;;;;;4972603;28;20522;-83
2021/01/01 07:50:59;;;;;;;16.15;7.30;;;3.70;83.70;;;;;;4973873;28;20038;-84
2021/01/01 07:53:25;;;;;;;18.15;6.90;;;3.70;83.70;;;;;;4989841;28;20042;-82
2021/01/01 07:55:51;;;;;;;15.98;6.97;;;3.80;83.70;;;;;;4972089;28;20027;-81
2021/01/01 07:58:17;;;;;;;14.82;5.95;;;3.80;83.70;;;;;;4977107;28;20505;-81
2021/01/01 08:00:47;;;;;;;15.43;7.15;;;3.80;83.60;;;;;;4973266;28;20039;-81
2021/01/01 08:03:14;;;;;;;16.20;7.60;;;3.80;83.50;;;;;;4973463;28;20025;-81
2021/01/01 08:05:46;;;;;;;15.63;7.28;;;3.80;83.70;;;;;;4972422;28;20023;-81
2021/01/01 08:08:22;;;;;;;17.67;7.85;;;3.80;83.50;;;;;;4971722;28;20383;-78
2021/01/01 08:10:53;;;;;;;18.80;7.95;;;3.80;83.60;;;;;;4972023;28;20034;-78
2021/01/01 08:13:20;;;;;;;17.17;7.82;;;3.80;83.50;;;;;;4973499;28;20019;-78
2021/01/01 08:15:46;;;;;;;16.73;7.40;;;3.80;83.60;;;;;;4973032;28;20026;-80
2021/01/01 08:18:20;;;;;;;15.95;7.57;;;3.80;83.60;;;;;;4973231;28;20431;-84
2021/01/01 08:20:48;;;;;;;17.00;7.82;;;3.80;83.80;;;;;;4971800;28;20447;-83
2021/01/01 08:23:23;;;;;;;15.88;7.47;;;3.90;83.90;;;;;;4989708;28;20039;-83
2021/01/01 08:25:51;;;;;;;19.65;7.72;;;3.90;83.50;;;;;;4971746;28;20078;-83
2021/01/01 08:28:26;;;;;;;16.08;8.07;;;3.90;83.80;;;;;;4971942;28;20030;-84
2021/01/01 08:30:58;;;;;;;16.00;6.30;;;4.00;83.80;;;;;;4971584;28;20483;-83
2021/01/01 08:33:27;;;;;;;10.32;4.32;;;4.00;83.80;;;;;;4990236;28;20034;-83
2021/01/01 08:36:00;;;;;;;12.00;4.82;;;4.00;83.60;;;;;;4976279;28;20472;-84
2021/01/01 08:38:26;;;;;;;12.40;5.55;;;4.00;83.90;;;;;;4972234;28;20089;-84
2021/01/01 08:40:56;;;;;;;15.57;7.15;;;4.10;84.20;;;;;;4973166;28;20050;-84
2021/01/01 08:43:23;;;;;;;21.75;9.55;;;4.20;84.30;;;;;;4975363;28;20035;-85
2021/01/01 08:45:48;;;;;;;21.48;9.23;;;4.30;84.40;;;;;;4993921;28;20030;-84
2021/01/01 08:48:15;;;;;;;25.60;10.90;;;4.20;84.20;;;;;;4992686;28;20497;-84
2021/01/01 08:50:47;;;;;;;19.42;10.20;;;4.30;83.80;;;;;;4991067;28;20402;-84
2021/01/01 08:53:13;;;;;;;19.17;8.57;;;4.30;84.00;;;;;;4994835;28;20077;-84
2021/01/01 08:55:39;;;;;;;17.65;8.43;;;4.40;84.30;;;;;;4977708;28;20039;-84
2021/01/01 08:58:10;;;;;;;18.05;8.07;;;4.50;84.20;;;;;;4993769;28;20561;-84
2021/01/01 09:00:37;;;;;;;16.23;8.35;;;4.50;84.20;;;;;;4958891;28;20093;-85
2021/01/01 09:03:07;;;;;;;17.92;8.32;;;4.50;84.30;;;;;;4974661;28;20019;-85
2021/01/01 09:05:34;;;;;;;15.70;6.95;;;4.60;84.40;;;;;;4974920;28;20030;-86
2021/01/01 09:08:14;;;;;;;18.20;8.00;;;4.70;84.50;;;;;;4976054;28;20030;-84
2021/01/01 09:10:41;;;;;;;15.35;7.63;;;4.80;84.60;;;;;;4971866;28;20117;-84
2021/01/01 09:13:18;;;;;;;18.10;8.20;;;4.80;84.60;;;;;;4978186;28;20484;-85
2021/01/01 09:15:45;;;;;;;16.08;7.68;;;4.90;84.30;;;;;;4975395;28;20177;-85
2021/01/01 09:18:12;;;;;;;16.00;7.50;;;4.90;84.20;;;;;;4994816;28;20365;-86
2021/01/01 09:20:40;;;;;;;21.25;11.10;;;4.90;84.10;;;;;;4974517;28;20034;-86
2021/01/01 09:23:07;;;;;;;25.52;13.20;;;5.00;84.40;;;;;;4977373;28;20057;-88
2021/01/01 09:25:33;;;;;;;26.05;13.68;;;5.10;84.50;;;;;;4975703;28;20504;-87
2021/01/01 09:27:59;;;;;;;20.95;10.02;;;5.00;83.70;;;;;;4977521;28;20031;-87
2021/01/01 09:30:35;;;;;;;23.52;10.93;;;5.00;83.90;;;;;;4974712;28;20051;-87
2021/01/01 09:33:01;;;;;;;21.88;10.68;;;5.00;84.20;;;;;;4975863;28;20025;-87
2021/01/01 09:35:28;;;;;;;21.90;9.38;;;5.10;84.30;;;;;;4974091;28;20033;-87
2021/01/01 09:37:56;;;;;;;18.38;9.40;;;5.10;84.00;;;;;;4974033;28;20031;-86
2021/01/01 09:40:24;;;;;;;18.95;8.85;;;5.10;83.80;;;;;;4974143;28;20026;-84
2021/01/01 09:42:50;;;;;;;17.42;9.40;;;5.00;83.80;;;;;;4975562;28;20382;-84
2021/01/01 09:45:16;;;;;;;18.90;8.13;;;5.20;84.80;;;;;;4994406;28;20578;-83
2021/01/01 09:47:42;;;;;;;17.50;9.38;;;5.30;85.00;;;;;;4993138;28;20042;-83
2021/01/01 09:50:09;;;;;;;19.58;9.55;;;5.30;84.70;;;;;;4973587;28;20030;-81
2021/01/01 09:52:38;;;;;;;21.25;9.25;;;5.40;84.50;;;;;;4974051;28;20026;-82
2021/01/01 09:55:05;;;;;;;16.02;8.35;;;5.50;84.60;;;;;;4975017;28;20031;-80
2021/01/01 09:57:31;;;;;;;19.00;9.25;;;5.50;84.60;;;;;;4945691;28;20040;-81
2021/01/01 09:59:57;;;;;;;19.05;9.05;;;5.60;84.80;;;;;;4917514;29;20027;-84
2021/01/01 10:02:23;;;;;;;20.55;10.07;;;5.60;84.80;;;;;;4916511;29;20032;-85
2021/01/01 10:04:49;;;;;;;17.02;7.97;;;5.80;84.80;;;;;;4888227;29;20034;-83
2021/01/01 10:07:15;;;;;;;18.52;9.02;;;5.80;84.10;;;;;;4903905;29;20035;-82
2021/01/01 10:09:45;;;;;;;22.48;10.90;;;5.80;84.60;;;;;;4924598;29;20047;-85
2021/01/01 10:12:16;;;;;;;19.52;9.55;;;5.90;84.60;;;;;;4917193;29;20028;-86
2021/01/01 10:14:42;;;;;;;20.27;10.00;;;6.00;85.20;;;;;;4906376;29;20076;-85
2021/01/01 10:17:08;;;;;;;15.63;8.30;;;6.10;85.10;;;;;;4917652;29;20024;-88
2021/01/01 10:19:34;;;;;;;16.10;8.55;;;6.20;85.00;;;;;;4920677;29;20034;-83
2021/01/01 10:22:00;;;;;;;18.05;9.32;;;6.30;84.80;;;;;;4916070;29;20070;-84
2021/01/01 10:24:25;;;;;;;18.90;8.43;;;6.30;84.70;;;;;;4915680;29;20035;-84
2021/01/01 10:26:53;;;;;;;16.70;8.00;;;6.30;84.50;;;;;;4903065;29;20071;-85
2021/01/01 10:29:19;;;;;;;22.08;9.20;;;6.40;84.30;;;;;;4916074;29;20531;-85
2021/01/01 10:31:45;;;;;;;24.85;10.55;;;6.40;84.30;;;;;;4916891;29;20381;-85
2021/01/01 10:34:11;;;;;;;16.33;7.40;;;6.40;84.30;;;;;;4916031;29;20032;-85
2021/01/01 10:36:38;;;;;;;19.83;9.02;;;6.30;84.20;;;;;;4915960;29;20031;-85
2021/01/01 10:39:05;;;;;;;17.65;8.73;;;6.40;85.00;;;;;;4915948;29;20035;-82
2021/01/01 10:41:31;;;;;;;17.70;8.90;;;6.50;85.20;;;;;;4903652;29;20492;-83
2021/01/01 10:43:56;;;;;;;15.68;7.60;;;6.60;84.90;;;;;;4915523;29;20051;-83
2021/01/01 10:46:22;;;;;;;17.10;8.57;;;6.70;85.20;;;;;;4915777;29;20065;-83
2021/01/01 10:48:48;;;;;;;18.80;9.00;;;6.70;84.80;;;;;;4915724;29;20028;-84
2021/01/01 10:51:23;;;;;;;17.85;9.05;;;6.80;85.10;;;;;;4902245;29;20040;-84
2021/01/01 10:53:49;;;;;;;18.15;8.40;;;6.90;85.10;;;;;;4918816;29;20031;-83
2021/01/01 10:56:26;;;;;;;18.60;9.40;;;7.00;85.40;;;;;;4915569;29;20036;-84
2021/01/01 10:58:52;;;;;;;16.83;8.38;;;7.10;85.10;;;;;;4916783;29;20027;-83
2021/01/01 11:01:22;;;;;;;17.27;8.70;;;7.20;85.20;;;;;;4901697;29;20036;-83
2021/01/01 11:03:49;;;;;;;20.95;9.57;;;7.20;85.30;;;;;;4915074;29;20024;-83
2021/01/01 11:06:15;;;;;;;19.00;9.30;;;7.20;84.80;;;;;;4916507;29;20111;-84
2021/01/01 11:08:42;;;;;;;17.83;8.73;;;7.20;84.50;;;;;;4915512;29;20080;-85
2021/01/01 11:11:10;;;;;;;16.20;7.55;;;7.20;84.40;;;;;;4915385;29;20036;-86
2021/01/01 11:13:40;;;;;;;19.63;9.98;;;7.20;84.40;;;;;;4916367;29;20327;-85
2021/01/01 12:22:28;;;;;;;20.95;10.05;;;6.60;83.60;;;;;;4920657;29;20040;-87
2021/01/01 12:24:54;;;;;;;19.40;9.25;;;6.50;83.60;;;;;;4905246;29;20036;-87
2021/01/01 12:27:24;;;;;;;22.40;9.30;;;6.50;84.40;;;;;;4902838;29;20060;-86
2021/01/01 12:29:51;;;;;;;21.98;9.48;;;6.40;83.80;;;;;;4920833;29;20357;-88
2021/01/01 12:32:18;;;;;;;20.10;10.88;;;6.30;83.70;;;;;;4918380;29;20033;-86
2021/01/01 12:34:44;;;;;;;17.83;9.10;;;6.30;84.50;;;;;;4919256;29;20579;-87
2021/01/01 12:37:10;;;;;;;19.40;9.65;;;6.40;84.70;;;;;;4921122;29;20036;-85
2021/01/01 12:39:36;;;;;;;20.08;10.27;;;6.50;85.40;;;;;;4921185;29;20103;-85
2021/01/01 12:42:03;;;;;;;17.70;8.98;;;6.60;84.70;;;;;;4921044;29;20417;-84
2021/01/01 12:44:29;;;;;;;17.30;8.93;;;6.50;84.40;;;;;;4909251;29;20051;-84
2021/01/01 12:46:55;;;;;;;21.85;9.88;;;6.50;84.70;;;;;;4920602;29;20081;-86
2021/01/01 12:49:21;;;;;;;22.65;9.82;;;6.70;85.00;;;;;;4919365;29;20389;-85
2021/01/01 12:51:46;;;;;;;21.02;9.63;;;6.70;85.30;;;;;;4908494;29;20493;-85
2021/01/01 12:54:12;;;;;;;16.88;8.20;;;6.70;84.80;;;;;;4916697;29;20119;-85
2021/01/01 12:56:38;;;;;;;23.65;11.32;;;6.70;84.90;;;;;;4902248;29;20032;-85
2021/01/01 12:59:04;;;;;;;23.33;11.40;;;6.60;83.50;;;;;;4920376;29;20032;-87
2021/01/01 13:01:34;;;;;;;20.88;9.73;;;6.50;84.10;;;;;;4917749;29;20040;-86
2021/01/01 13:03:59;;;;;;;19.27;10.02;;;6.60;84.80;;;;;;4936111;28;20124;-87
2021/01/01 13:06:25;;;;;;;19.98;10.07;;;6.60;85.30;;;;;;4901099;29;20123;-87
2021/01/01 13:08:51;;;;;;;22.50;10.43;;;6.70;84.90;;;;;;4900615;29;20043;-86
2021/01/01 13:11:21;;;;;;;20.15;10.02;;;6.70;85.10;;;;;;4915353;29;20384;-85
2021/01/01 13:13:46;;;;;;;17.73;8.93;;;6.80;85.20;;;;;;4917477;29;20020;-86
2021/01/01 13:16:19;;;;;;;17.83;9.10;;;6.90;85.40;;;;;;4919822;29;20446;-84
2021/01/01 13:18:45;;;;;;;18.42;8.20;;;6.90;84.90;;;;;;4917327;29;20032;-84
2021/01/01 13:21:11;;;;;;;17.33;8.55;;;6.90;84.80;;;;;;4917835;29;20051;-85
2021/01/01 13:23:39;;;;;;;18.08;8.80;;;6.90;84.40;;;;;;4917547;29;20044;-85
2021/01/01 13:26:05;;;;;;;16.90;8.85;;;6.90;84.40;;;;;;4914228;29;20036;-84
2021/01/01 13:28:31;;;;;;;16.08;8.30;;;6.90;84.50;;;;;;4917795;29;20039;-84
2021/01/01 13:30:56;;;;;;;18.95;8.75;;;6.90;84.60;;;;;;4903674;29;20473;-86
2021/01/01 13:33:22;;;;;;;17.25;7.82;;;6.80;84.20;;;;;;4917108;29;20055;-86
2021/01/01 13:35:51;;;;;;;17.10;8.50;;;6.80;84.40;;;;;;4917083;29;20505;-86
2021/01/01 13:38:18;;;;;;;16.70;9.02;;;6.80;84.60;;;;;;4903438;29;20055;-87
2021/01/01 13:40:43;;;;;;;20.48;9.45;;;6.60;83.70;;;;;;4917937;29;20120;-86
2021/01/01 13:43:09;;;;;;;20.83;9.48;;;6.60;84.30;;;;;;4919310;29;20033;-86
2021/01/01 13:45:34;;;;;;;21.00;9.75;;;6.60;84.40;;;;;;4919611;29;20382;-86
2021/01/01 13:48:00;;;;;;;18.50;8.43;;;6.60;84.30;;;;;;4919601;29;20104;-84
2021/01/01 13:50:26;;;;;;;21.02;8.20;;;6.60;84.40;;;;;;4916495;29;20047;-84
2021/01/01 13:52:51;;;;;;;16.08;7.22;;;6.60;84.20;;;;;;4917888;29;20020;-81
2021/01/01 13:55:17;;;;;;;17.13;8.40;;;6.60;84.90;;;;;;4917862;29;20038;-85